Time;durP1;ratioP1;P1;durP2;ratioP2;P2;SDS_P1;SDS_P2;PMS_P1;PMS_P2;Temp;Humidity;BMP_temperature;BMP_pressure;BME280_temperature;BME280_humidity;BME280_pressure;Samples;Min_cycle;Max_cycle;Signal;HPM_P1;HPM_P2
2022/12/05 00:00:04;;;;;;;6.30;1.70;;;;;;;-7.79;62.58;101612.98;24619;1309;3026638;-61
2022/12/05 00:02:34;;;;;;;3.20;1.70;;;;;;;-7.84;62.85;101611.55;24651;1323;3052400;-61
2022/12/05 00:05:03;;;;;;;7.00;2.30;;;;;;;-7.80;62.93;101608.05;24576;1322;3025985;-63
2022/12/05 00:07:33;;;;;;;4.30;2.10;;;;;;;-7.82;62.63;101606.42;24576;1323;3050803;-63
2022/12/05 00:10:03;;;;;;;3.70;2.10;;;;;;;-7.80;62.92;101606.02;24662;1316;3027515;-63
2022/12/05 00:12:36;;;;;;;4.90;2.10;;;;;;;-7.89;63.12;101610.98;24584;1324;3052894;-64
2022/12/05 00:15:05;;;;;;;2.80;1.50;;;;;;;-7.82;62.79;101613.39;24602;1317;3025921;-64
2022/12/05 00:17:34;;;;;;;5.50;2.30;;;;;;;-7.79;62.70;101613.19;24638;1324;3028413;-61
2022/12/05 00:20:06;;;;;;;4.90;2.40;;;;;;;-7.90;62.93;101611.96;24576;1324;3026461;-61
2022/12/05 00:22:37;;;;;;;4.80;2.00;;;;;;;-7.81;62.65;101615.83;24591;1315;3026211;-63
2022/12/05 00:25:07;;;;;;;5.80;2.10;;;;;;;-7.93;63.11;101613.88;24621;1322;3025787;-63
2022/12/05 00:27:38;;;;;;;5.70;2.30;;;;;;;-7.95;63.13;101608.14;24565;1317;3027332;-63
2022/12/05 00:30:07;;;;;;;5.00;2.30;;;;;;;-8.01;63.00;101612.47;24639;1314;3029009;-62
2022/12/05 00:32:36;;;;;;;3.90;2.00;;;;;;;-7.94;63.10;101610.77;24644;1324;3050143;-61
2022/12/05 00:35:06;;;;;;;4.60;2.20;;;;;;;-7.96;63.21;101607.06;24562;1316;3028749;-60
2022/12/05 00:37:35;;;;;;;6.80;2.60;;;;;;;-8.11;63.35;101603.61;24596;1317;3067498;-62
2022/12/05 00:40:05;;;;;;;5.70;2.20;;;;;;;-8.19;63.44;101602.89;24570;1322;3029114;-63
2022/12/05 00:42:34;;;;;;;6.50;2.20;;;;;;;-8.18;64.01;101600.38;24618;1323;3049648;-63
2022/12/05 00:45:03;;;;;;;4.00;1.70;;;;;;;-8.30;63.88;101599.64;24582;1315;3028441;-62
2022/12/05 00:47:36;;;;;;;5.10;2.30;;;;;;;-8.19;63.96;101599.49;24627;1324;3052914;-63
2022/12/05 00:50:05;;;;;;;6.70;2.40;;;;;;;-8.13;63.41;101596.39;24623;1316;3028731;-62
2022/12/05 00:52:34;;;;;;;5.50;2.50;;;;;;;-8.24;63.65;101592.82;24593;1315;3027999;-61
2022/12/05 00:55:04;;;;;;;9.60;2.10;;;;;;;-8.24;63.77;101594.16;24578;1323;3028002;-63
2022/12/05 00:57:33;;;;;;;4.10;2.00;;;;;;;-8.30;64.02;101590.11;24591;1323;3048998;-61
2022/12/05 01:00:04;;;;;;;7.80;2.90;;;;;;;-8.29;64.05;101586.90;24577;1317;3028067;-62
2022/12/05 01:02:33;;;;;;;10.90;2.50;;;;;;;-8.40;64.25;101582.80;24624;1323;3051858;-63
2022/12/05 01:05:02;;;;;;;4.10;1.60;;;;;;;-8.26;64.14;101585.21;24586;1315;3028492;-62
2022/12/05 01:07:31;;;;;;;5.70;2.50;;;;;;;-8.27;63.93;101580.57;24553;1323;3051607;-62
2022/12/05 01:10:00;;;;;;;5.80;2.20;;;;;;;-8.25;64.25;101573.52;24594;1317;3024795;-61
2022/12/05 01:12:29;;;;;;;11.30;2.50;;;;;;;-8.16;63.52;101571.43;24621;1324;3052328;-63
2022/12/05 01:14:58;;;;;;;4.60;2.30;;;;;;;-8.36;64.09;101569.06;24596;1315;3030198;-62
2022/12/05 01:17:28;;;;;;;3.40;1.90;;;;;;;-8.47;64.32;101567.00;24584;1323;3028760;-61
2022/12/05 01:19:57;;;;;;;6.50;2.20;;;;;;;-8.40;64.28;101563.79;24603;1332;3052655;-61
2022/12/05 01:22:25;;;;;;;8.20;2.60;;;;;;;-8.42;64.20;101565.02;24567;1316;3028950;-62
2022/12/05 01:24:54;;;;;;;7.10;2.70;;;;;;;-8.36;64.31;101561.92;24609;1316;3052784;-65
2022/12/05 01:27:23;;;;;;;5.20;2.30;;;;;;;-8.47;64.33;101554.62;24567;1323;3025780;-64
2022/12/05 01:29:52;;;;;;;3.90;2.10;;;;;;;-8.53;64.45;101555.18;24642;1323;3056683;-64
2022/12/05 01:32:25;;;;;;;4.10;2.00;;;;;;;-8.58;65.05;101558.83;24566;1323;3028916;-62
2022/12/05 01:34:54;;;;;;;5.30;2.20;;;;;;;-8.55;65.09;101555.55;24685;1317;3026574;-64
2022/12/05 01:37:24;;;;;;;4.30;2.10;;;;;;;-8.49;64.84;101553.69;24543;1323;3057001;-63
2022/12/05 01:39:52;;;;;;;5.50;2.50;;;;;;;-8.48;65.03;101553.38;24630;1324;3025805;-63
2022/12/05 01:42:21;;;;;;;3.70;1.80;;;;;;;-8.57;64.73;101553.95;24582;1324;3050521;-64
2022/12/05 01:44:52;;;;;;;5.80;2.00;;;;;;;-8.62;65.18;101552.50;24586;1323;3026940;-62
2022/12/05 01:47:21;;;;;;;6.20;2.40;;;;;;;-8.64;65.18;101552.58;24571;1316;3028578;-62
2022/12/05 01:49:51;;;;;;;9.40;2.50;;;;;;;-8.65;65.34;101550.83;24597;1325;3050311;-61
2022/12/05 01:52:22;;;;;;;8.00;2.10;;;;;;;-8.47;64.61;101560.21;24580;1317;3028743;-62
2022/12/05 01:54:53;;;;;;;8.30;2.60;;;;;;;-8.46;64.75;101555.50;24616;1322;3068698;-61
2022/12/05 01:57:22;;;;;;;6.40;2.20;;;;;;;-8.64;65.12;101549.20;24568;1319;3027476;-63
2022/12/05 01:59:52;;;;;;;6.70;2.40;;;;;;;-8.54;64.78;101551.02;24616;1330;3028764;-63
2022/12/05 02:02:21;;;;;;;4.70;2.30;;;;;;;-8.50;64.51;101550.73;24593;1320;3025757;-63
2022/12/05 02:05:06;;;;;;;6.30;2.20;;;;;;;-8.48;64.41;101553.22;24632;1316;3026592;-62
2022/12/05 02:07:36;;;;;;;6.40;2.40;;;;;;;-8.57;64.35;101550.02;24604;1326;3056269;-61
2022/12/05 02:10:06;;;;;;;4.80;2.20;;;;;;;-8.86;65.34;101543.29;24636;1323;3026516;-62
2022/12/05 02:12:37;;;;;;;6.70;2.30;;;;;;;-8.81;65.57;101541.03;24593;1330;3028088;-62
2022/12/05 02:15:25;;;;;;;3.70;2.10;;;;;;;-8.84;65.40;101544.60;24590;1323;3028297;-62
2022/12/05 02:18:19;;;;;;;7.00;2.30;;;;;;;-8.65;64.95;101544.17;24560;1316;3053390;-62
2022/12/05 02:21:06;;;;;;;5.10;2.40;;;;;;;-8.74;65.04;101543.40;24598;1330;3052869;-63
2022/12/05 02:24:17;;;;;;;5.30;2.10;;;;;;;-8.67;65.00;101540.55;24561;1317;3052214;-62
2022/12/05 02:27:05;;;;;;;13.10;2.10;;;;;;;-8.61;64.57;101544.25;24602;1330;3052369;-63
2022/12/05 02:29:50;;;;;;;6.60;2.40;;;;;;;-8.72;65.07;101545.20;24666;1330;3049244;-62
2022/12/05 02:32:26;;;;;;;6.70;2.30;;;;;;;-8.86;65.65;101543.64;24616;1323;3070401;-62
2022/12/05 02:35:07;;;;;;;5.00;2.40;;;;;;;-8.70;65.19;101540.87;24592;1324;3049029;-62
2022/12/05 02:37:56;;;;;;;3.30;2.00;;;;;;;-8.90;65.70;101542.08;24582;1323;3056450;-63
2022/12/05 02:40:54;;;;;;;4.60;2.10;;;;;;;-8.78;65.64;101538.42;24617;1320;3052915;-62
2022/12/05 02:43:37;;;;;;;3.70;1.90;;;;;;;-8.80;65.67;101540.89;24590;1324;3053711;-61
2022/12/05 02:46:15;;;;;;;6.50;2.00;;;;;;;-8.77;65.21;101542.04;24559;1317;3051386;-62
2022/12/05 02:48:44;;;;;;;7.60;2.50;;;;;;;-8.78;65.09;101543.40;24564;1324;3052656;-61
2022/12/05 02:51:16;;;;;;;5.00;1.90;;;;;;;-8.70;65.16;101546.33;24562;1317;3028190;-60
2022/12/05 02:53:47;;;;;;;10.70;2.90;;;;;;;-8.76;65.11;101549.45;24635;1323;3028606;-62
2022/12/05 02:56:16;;;;;;;5.80;2.30;;;;;;;-9.03;66.10;101551.27;24548;1317;3028997;-62
2022/12/05 02:58:51;;;;;;;4.90;2.30;;;;;;;-8.97;65.80;101549.55;24600;1322;3028439;-62
2022/12/05 03:01:22;;;;;;;7.90;2.50;;;;;;;-8.82;65.65;101550.15;24619;1316;3069464;-62
2022/12/05 03:03:51;;;;;;;4.90;2.10;;;;;;;-8.68;65.42;101546.27;24622;1333;3028055;-62
2022/12/05 03:06:27;;;;;;;4.30;2.00;;;;;;;-8.70;65.00;101545.64;24620;1317;3028521;-62
2022/12/05 03:09:00;;;;;;;3.20;2.10;;;;;;;-8.73;65.33;101549.39;24622;1322;3053901;-63
2022/12/05 03:11:39;;;;;;;5.30;2.10;;;;;;;-8.80;65.38;101548.38;24590;1323;3053536;-61
2022/12/05 03:14:12;;;;;;;5.40;2.40;;;;;;;-8.73;65.24;101546.37;24581;1322;3052101;-61
2022/12/05 03:16:43;;;;;;;5.60;2.20;;;;;;;-8.68;64.92;101549.69;24660;1316;3026324;-62
2022/12/05 03:19:47;;;;;;;5.90;2.20;;;;;;;-8.61;64.85;101553.92;24616;1330;3025980;-62
2022/12/05 03:22:45;;;;;;;3.20;1.80;;;;;;;-8.69;65.04;101549.63;24546;1317;3069613;-61
2022/12/05 03:25:14;;;;;;;6.40;2.30;;;;;;;-8.76;65.14;101552.98;24593;1333;3049552;-60
2022/12/05 03:27:46;;;;;;;4.60;2.10;;;;;;;-8.67;65.05;101549.20;24622;1321;3028770;-62
2022/12/05 03:30:16;;;;;;;5.10;2.50;;;;;;;-8.85;65.55;101548.98;24593;1323;3068898;-60
2022/12/05 03:32:54;;;;;;;7.90;2.10;;;;;;;-8.70;65.28;101548.69;24619;1325;3025791;-61
2022/12/05 03:35:26;;;;;;;5.50;2.50;;;;;;;-8.85;65.75;101551.31;24566;1316;3056893;-62
2022/12/05 03:38:02;;;;;;;4.90;1.90;;;;;;;-8.88;65.67;101555.79;24665;1326;3026435;-61
2022/12/05 03:40:33;;;;;;;5.70;2.50;;;;;;;-8.86;65.62;101558.27;24574;1324;3052997;-61
2022/12/05 03:43:27;;;;;;;5.90;2.50;;;;;;;-8.74;65.85;101556.48;24530;1319;3026104;-61
2022/12/05 03:45:58;;;;;;;;;;;;;;;-8.81;65.55;101555.13;24601;1324;3053142;-62
2022/12/05 03:48:58;;;;;;;3.80;1.50;;;;;;;-8.76;65.47;101552.48;24603;1329;3026250;-63
2022/12/05 03:51:32;;;;;;;4.20;1.60;;;;;;;-8.63;64.81;101551.79;24602;1317;3069131;-61
2022/12/05 03:54:24;;;;;;;6.00;2.30;;;;;;;-8.70;64.99;101554.65;24597;1327;3050108;-63
2022/12/05 03:57:05;;;;;;;6.20;2.30;;;;;;;-8.65;65.22;101553.86;24674;1323;3056144;-62
2022/12/05 03:59:39;;;;;;;5.20;2.30;;;;;;;-8.71;65.26;101554.78;24552;1326;3052585;-62
2022/12/05 04:02:11;;;;;;;6.00;2.40;;;;;;;-8.82;65.67;101557.27;24579;1316;3054053;-68
2022/12/05 04:04:47;;;;;;;6.20;2.20;;;;;;;-8.79;65.37;101559.45;24622;1317;3025548;-62
2022/12/05 04:07:16;;;;;;;6.00;2.40;;;;;;;-8.72;65.43;101564.73;24634;1324;3050698;-63
2022/12/05 04:09:51;;;;;;;4.30;1.90;;;;;;;-8.63;65.54;101559.27;24581;1319;3028494;-62
2022/12/05 04:12:22;;;;;;;4.60;2.10;;;;;;;-8.58;65.12;101562.73;24563;1323;3050755;-62
2022/12/05 04:15:06;;;;;;;5.60;2.80;;;;;;;-8.63;64.67;101562.17;24598;1324;3026670;-63
2022/12/05 04:17:41;;;;;;;3.60;2.10;;;;;;;-8.72;65.15;101557.26;24597;1317;3048863;-62
2022/12/05 04:23:04;;;;;;;4.90;2.00;;;;;;;-8.80;65.50;101557.39;24575;1333;3050716;-63
2022/12/05 04:25:36;;;;;;;6.80;2.60;;;;;;;-8.75;65.19;101550.79;24637;1319;3027970;-61
2022/12/05 04:28:25;;;;;;;4.70;2.10;;;;;;;-8.86;65.51;101555.86;24590;1323;3068903;-62
2022/12/05 04:31:00;;;;;;;6.90;2.30;;;;;;;-9.01;66.36;101547.15;24602;1324;3050655;-62
2022/12/05 04:33:49;;;;;;;6.50;2.30;;;;;;;-8.94;66.08;101548.84;24595;1323;3056488;-62
2022/12/05 04:36:25;;;;;;;1.70;1.00;;;;;;;-8.99;66.15;101552.33;24541;1326;3053192;-62
2022/12/05 04:39:01;;;;;;;4.60;2.10;;;;;;;-8.59;65.57;101547.88;24586;1324;3052869;-62
2022/12/05 04:41:35;;;;;;;6.60;1.80;;;;;;;-7.70;62.72;101545.52;24570;1320;3051840;-61
2022/12/05 04:44:06;;;;;;;6.90;2.40;;;;;;;-7.35;60.90;101538.62;24649;1332;3051221;-61
2022/12/05 04:46:37;;;;;;;6.00;2.30;;;;;;;-7.49;60.84;101540.70;24595;1333;3026746;-61
2022/12/05 04:49:07;;;;;;;7.00;2.20;;;;;;;-7.59;61.62;101537.20;24617;1320;3026236;-63
2022/12/05 04:51:38;;;;;;;5.00;2.50;;;;;;;-7.85;61.75;101540.92;24607;1323;3029019;-61
2022/12/05 04:54:13;;;;;;;4.80;2.10;;;;;;;-8.07;62.14;101544.12;24591;1317;3028748;-62
2022/12/05 04:56:43;;;;;;;7.10;2.60;;;;;;;-8.15;62.84;101538.66;24613;1315;3051762;-64
2022/12/05 04:59:12;;;;;;;7.00;2.60;;;;;;;-8.34;62.82;101543.84;24587;1317;3025760;-61
2022/12/05 05:01:44;;;;;;;5.70;2.90;;;;;;;-8.43;63.41;101536.58;24632;1324;3025735;-62
2022/12/05 05:04:20;;;;;;;8.80;2.60;;;;;;;-8.61;64.02;101537.77;24624;1315;3052223;-63
2022/12/05 05:06:49;;;;;;;4.90;2.10;;;;;;;-8.61;63.97;101543.38;24635;1323;3053188;-61
2022/12/05 05:09:18;;;;;;;6.50;1.80;;;;;;;-8.58;63.97;101543.36;24575;1319;3028759;-61
2022/12/05 05:11:47;;;;;;;6.50;2.00;;;;;;;-8.58;64.02;101547.79;24598;1330;3052168;-61
2022/12/05 05:14:17;;;;;;;9.80;2.10;;;;;;;-8.57;64.33;101554.13;24612;1333;3028286;-61
2022/12/05 05:16:47;;;;;;;6.30;2.70;;;;;;;-8.59;63.72;101542.46;24582;1323;3029151;-63
2022/12/05 05:19:16;;;;;;;5.90;2.40;;;;;;;-8.74;64.63;101543.73;24552;1324;3029443;-63
2022/12/05 05:21:45;;;;;;;4.50;2.20;;;;;;;-8.69;64.66;101541.79;24634;1315;3026324;-64
2022/12/05 05:24:17;;;;;;;4.40;2.10;;;;;;;-8.70;64.85;101541.20;24593;1324;3050803;-62
2022/12/05 05:26:46;;;;;;;5.80;2.50;;;;;;;-8.83;65.09;101544.48;24611;1317;3026539;-61
2022/12/05 05:29:16;;;;;;;5.30;2.80;;;;;;;-8.89;65.27;101544.36;24598;1316;3026020;-61
2022/12/05 05:31:45;;;;;;;6.50;1.80;;;;;;;-8.82;64.90;101545.03;24618;1323;3051318;-63
2022/12/05 05:34:15;;;;;;;5.40;2.10;;;;;;;-8.77;64.81;101544.45;24567;1324;3028826;-63
2022/12/05 05:36:44;;;;;;;4.30;2.60;;;;;;;-8.82;65.12;101546.08;24593;1324;3029363;-62
2022/12/05 05:39:13;;;;;;;4.10;2.20;;;;;;;-8.88;65.24;101546.11;24683;1316;3026537;-61
2022/12/05 05:41:43;;;;;;;6.80;2.40;;;;;;;-8.75;64.89;101543.20;24619;1323;3053398;-63
2022/12/05 05:44:12;;;;;;;4.40;2.20;;;;;;;-8.79;65.61;101537.37;24606;1323;3026422;-62
2022/12/05 05:46:41;;;;;;;4.70;2.20;;;;;;;-8.70;64.87;101539.56;24617;1317;3027143;-63
2022/12/05 05:49:11;;;;;;;6.00;2.60;;;;;;;-8.69;64.95;101536.34;23979;1316;4326501;-61
2022/12/05 05:51:40;;;;;;;8.60;2.80;;;;;;;-8.65;64.56;101540.27;24595;1309;3048508;-61
2022/12/05 05:54:09;;;;;;;6.40;2.90;;;;;;;-8.70;64.48;101542.27;24588;1324;3028429;-62
2022/12/05 05:56:38;;;;;;;8.60;2.90;;;;;;;-8.74;64.83;101544.94;24578;1310;3050867;-61
2022/12/05 05:59:08;;;;;;;4.20;2.10;;;;;;;-8.72;64.64;101545.70;24591;1317;3026287;-62
2022/12/05 06:01:37;;;;;;;14.20;2.70;;;;;;;-8.71;64.77;101541.33;24614;1321;3052021;-63
2022/12/05 06:04:06;;;;;;;4.50;2.40;;;;;;;-8.64;64.18;101544.77;24587;1324;3026369;-61
2022/12/05 06:06:35;;;;;;;5.30;2.20;;;;;;;-8.55;64.15;101547.44;24630;1324;3026638;-62
2022/12/05 06:09:06;;;;;;;4.70;2.30;;;;;;;-8.62;64.09;101542.63;24609;1309;3028366;-62
2022/12/05 06:11:35;;;;;;;7.40;2.60;;;;;;;-8.58;64.42;101544.55;24613;1314;3054046;-62
2022/12/05 06:14:04;;;;;;;6.10;2.50;;;;;;;-8.51;63.67;101543.02;24577;1313;3028019;-62
2022/12/05 06:16:33;;;;;;;5.20;2.40;;;;;;;-8.67;64.27;101540.55;24593;1322;3051725;-62
2022/12/05 06:19:03;;;;;;;7.10;2.90;;;;;;;-8.55;63.70;101540.44;24598;1322;3028191;-64
2022/12/05 06:21:32;;;;;;;4.40;2.70;;;;;;;-8.55;64.17;101542.14;24683;1314;3028722;-62
2022/12/05 06:24:01;;;;;;;6.80;3.20;;;;;;;-8.47;64.05;101543.38;24583;1320;3051072;-63
2022/12/05 06:26:30;;;;;;;7.50;3.10;;;;;;;-8.43;63.40;101545.62;24801;1317;3026283;-61
2022/12/05 06:28:59;;;;;;;5.20;2.40;;;;;;;-8.45;64.22;101542.81;24641;1323;3052003;-68
2022/12/05 06:31:30;;;;;;;5.70;2.60;;;;;;;-8.31;63.30;101547.55;24693;1309;3028581;-63
2022/12/05 06:34:01;;;;;;;6.10;2.70;;;;;;;-8.27;63.71;101550.30;24637;1323;3052539;-64
2022/12/05 06:36:33;;;;;;;5.80;2.70;;;;;;;-8.23;63.17;101552.86;24726;1316;3052566;-65
2022/12/05 06:39:03;;;;;;;6.40;2.90;;;;;;;-8.15;63.22;101549.02;24622;1317;3028383;-69
2022/12/05 06:41:32;;;;;;;5.40;2.80;;;;;;;-8.11;62.70;101547.85;24643;1316;3026490;-67
2022/12/05 06:44:01;;;;;;;5.70;2.70;;;;;;;-8.06;62.76;101544.55;24644;1333;3026434;-65
2022/12/05 06:46:33;;;;;;;10.90;2.80;;;;;;;-7.98;62.63;101549.47;24635;1317;3050986;-65
2022/12/05 06:49:02;;;;;;;4.80;2.10;;;;;;;-7.97;62.80;101553.10;24737;1315;3027275;-64
2022/12/05 06:51:31;;;;;;;6.60;2.40;;;;;;;-7.77;62.39;101546.06;24729;1324;3053104;-67
2022/12/05 06:54:00;;;;;;;4.70;2.30;;;;;;;-7.82;62.40;101545.34;24692;1323;3027316;-65
2022/12/05 06:56:28;;;;;;;7.00;2.90;;;;;;;-7.84;62.39;101546.92;24649;1317;3052081;-64
2022/12/05 06:58:57;;;;;;;7.10;2.90;;;;;;;-7.68;62.56;101541.38;24687;1322;3025853;-64
2022/12/05 07:01:39;;;;;;;3.80;2.20;;;;;;;-7.53;61.79;101542.06;24592;1323;3054533;-65
2022/12/05 07:04:21;;;;;;;5.30;2.50;;;;;;;-7.47;61.85;101544.23;24651;1316;3053219;-68
2022/12/05 07:06:52;;;;;;;7.60;3.00;;;;;;;-7.42;62.16;101541.36;24661;1317;3053613;-68
2022/12/05 07:09:44;;;;;;;9.40;3.30;;;;;;;-7.36;61.81;101541.48;24653;1330;3025788;-65
2022/12/05 07:12:12;;;;;;;9.20;3.00;;;;;;;-7.26;61.12;101541.73;24593;1316;3052337;-70
2022/12/05 07:14:42;;;;;;;5.50;3.10;;;;;;;-7.15;61.29;101536.27;24576;1330;3028932;-63
2022/12/05 07:17:11;;;;;;;10.40;3.00;;;;;;;-7.24;61.53;101529.60;24587;1317;3028015;-64
2022/12/05 07:19:40;;;;;;;6.10;2.70;;;;;;;-7.13;61.38;101529.02;24694;1316;3026548;-63
2022/12/05 07:22:09;;;;;;;8.60;2.60;;;;;;;-6.99;61.23;101520.45;24637;1324;3048724;-68
2022/12/05 07:25:04;;;;;;;7.40;2.60;;;;;;;-7.03;61.35;101522.15;24640;1323;3068473;-64
2022/12/05 07:27:34;;;;;;;6.50;2.70;;;;;;;-6.89;60.90;101520.56;24777;1330;3028384;-65
2022/12/05 07:30:28;;;;;;;6.70;2.60;;;;;;;-6.69;60.49;101515.25;24680;1308;3056882;-65
2022/12/05 07:32:58;;;;;;;9.00;2.30;;;;;;;-6.78;60.41;101520.48;24660;1316;3026701;-66
2022/12/05 07:35:27;;;;;;;8.20;2.70;;;;;;;-6.71;60.71;101520.80;24649;1316;3026686;-64
2022/12/05 07:37:56;;;;;;;9.60;2.70;;;;;;;-6.59;60.02;101525.23;24714;1326;3056958;-67
2022/12/05 07:40:26;;;;;;;6.80;2.60;;;;;;;-6.49;60.27;101528.19;24649;1317;3028484;-65
2022/12/05 07:42:55;;;;;;;7.00;2.70;;;;;;;-6.51;59.93;101526.73;24638;1316;3029138;-65
2022/12/05 07:45:27;;;;;;;8.90;2.80;;;;;;;-6.46;60.18;101523.53;24620;1317;3056977;-65
2022/12/05 07:47:58;;;;;;;10.30;3.00;;;;;;;-6.40;59.68;101521.57;24661;1323;3025926;-66
2022/12/05 07:50:52;;;;;;;7.70;2.70;;;;;;;-6.35;59.41;101518.89;24712;1332;3053874;-62
2022/12/05 07:53:47;;;;;;;5.90;2.80;;;;;;;-6.22;59.72;101515.52;24627;1324;3051254;-64
2022/12/05 07:56:16;;;;;;;4.50;2.50;;;;;;;-6.11;59.64;101514.55;24621;1316;3026674;-65
2022/12/05 07:58:46;;;;;;;6.50;2.90;;;;;;;-6.12;59.35;101515.75;24663;1324;3051757;-64
2022/12/05 08:01:19;;;;;;;8.50;2.90;;;;;;;-5.96;59.04;101514.28;24613;1316;3026716;-64
2022/12/05 08:03:49;;;;;;;7.80;3.20;;;;;;;-6.00;59.22;101510.06;24683;1316;3027047;-64
2022/12/05 08:06:21;;;;;;;18.70;4.00;;;;;;;-5.91;58.96;101505.77;24670;1331;3026517;-70
2022/12/05 08:08:51;;;;;;;5.50;2.00;;;;;;;-5.84;58.36;101499.70;24650;1309;3026560;-66
2022/12/05 08:11:23;;;;;;;7.90;3.10;;;;;;;-5.70;58.02;101499.73;24688;1316;3029351;-63
2022/12/05 08:13:52;;;;;;;6.10;2.60;;;;;;;-5.74;58.71;101494.10;24678;1323;3027283;-62
2022/12/05 08:16:24;;;;;;;9.20;2.90;;;;;;;-5.67;58.26;101488.57;24659;1317;3029005;-62
2022/12/05 08:18:58;;;;;;;10.90;3.10;;;;;;;-5.66;57.87;101493.92;24597;1316;3027873;-62
2022/12/05 08:21:27;;;;;;;5.00;2.50;;;;;;;-5.51;57.84;101491.56;24651;1323;3052024;-63
2022/12/05 08:23:58;;;;;;;4.20;2.70;;;;;;;-5.37;57.82;101491.73;24588;1333;3028883;-63
2022/12/05 08:26:28;;;;;;;6.30;2.10;;;;;;;-5.28;57.47;101484.55;24612;1316;3026591;-63
2022/12/05 08:28:59;;;;;;;7.50;2.90;;;;;;;-5.19;57.39;101486.94;24598;1324;3051582;-62
2022/12/05 08:31:29;;;;;;;7.20;2.90;;;;;;;-5.03;57.60;101480.65;24590;1323;3026378;-63
2022/12/05 08:33:58;;;;;;;8.70;3.40;;;;;;;-4.90;57.07;101481.29;24649;1317;3026792;-63
2022/12/05 08:36:28;;;;;;;8.20;3.70;;;;;;;-4.82;56.63;101484.48;24630;1324;3026543;-64
2022/12/05 08:38:59;;;;;;;7.80;2.90;;;;;;;-4.68;56.55;101477.92;24653;1323;3026194;-62
2022/12/05 08:41:28;;;;;;;10.90;3.60;;;;;;;-4.61;56.03;101473.38;24633;1324;3026998;-62
2022/12/05 08:44:01;;;;;;;5.40;2.70;;;;;;;-4.69;55.84;101467.64;24584;1315;3025380;-66
2022/12/05 08:46:35;;;;;;;5.50;2.30;;;;;;;-4.67;55.77;101462.91;24639;1326;3052222;-64
2022/12/05 08:49:07;;;;;;;5.40;2.60;;;;;;;-4.60;55.90;101460.77;24567;1333;3025963;-65
2022/12/05 08:51:36;;;;;;;7.40;2.90;;;;;;;-4.52;55.88;101455.38;24634;1320;3027297;-64
2022/12/05 08:54:05;;;;;;;5.40;2.80;;;;;;;-4.49;55.40;101449.13;24600;1312;3029010;-63
2022/12/05 08:56:35;;;;;;;7.30;2.90;;;;;;;-4.51;55.83;101447.54;24625;1323;3051671;-62
2022/12/05 08:59:04;;;;;;;8.00;3.10;;;;;;;-4.57;55.47;101446.49;24641;1323;3025908;-65
2022/12/05 09:01:35;;;;;;;8.60;2.50;;;;;;;-4.48;55.70;101447.80;24614;1324;3052280;-65
2022/12/05 09:04:04;;;;;;;7.20;2.50;;;;;;;-4.25;55.52;101440.67;24599;1323;3026514;-62
2022/12/05 09:06:34;;;;;;;8.90;3.10;;;;;;;-4.12;55.14;101431.64;24631;1317;3029277;-62
2022/12/05 09:09:07;;;;;;;8.00;3.00;;;;;;;-4.01;54.65;101430.25;24604;1331;3027976;-63
2022/12/05 09:11:39;;;;;;;9.00;3.20;;;;;;;-3.95;54.06;101423.23;24573;1323;3028470;-65
2022/12/05 09:14:09;;;;;;;8.10;2.40;;;;;;;-4.01;54.45;101416.75;24664;1323;3027160;-63
2022/12/05 09:17:03;;;;;;;;;;;;;;;-3.98;54.42;101418.37;24585;1320;3057051;-63
2022/12/05 09:19:34;;;;;;;8.80;2.60;;;;;;;-4.01;54.03;101412.80;24579;1316;3028893;-62
2022/12/05 09:22:03;;;;;;;5.30;2.40;;;;;;;-3.84;53.79;101412.27;24652;1316;3028418;-63
2022/12/05 09:24:33;;;;;;;5.40;2.30;;;;;;;-3.86;53.84;101410.00;24669;1326;3056040;-65
2022/12/05 09:27:03;;;;;;;5.20;2.20;;;;;;;-3.68;53.61;101407.08;24669;1316;3028880;-65
2022/12/05 09:29:32;;;;;;;8.10;3.50;;;;;;;-3.62;53.94;101408.27;24749;1325;3028982;-64
2022/12/05 09:32:01;;;;;;;7.20;2.70;;;;;;;-3.65;53.68;101406.15;24606;1324;3026254;-66
2022/12/05 09:34:30;;;;;;;5.40;2.40;;;;;;;-3.52;53.32;101398.30;24608;1315;3053102;-64
2022/12/05 09:37:00;;;;;;;6.30;2.30;;;;;;;-3.27;52.86;101401.71;24580;1317;3025079;-64
2022/12/05 09:39:29;;;;;;;7.10;2.70;;;;;;;-3.27;53.02;101396.39;24644;1324;3057029;-65
2022/12/05 09:42:08;;;;;;;9.70;2.30;;;;;;;-3.27;53.02;101396.91;24592;1322;3028150;-62
2022/12/05 09:45:00;;;;;;;4.60;2.40;;;;;;;-3.20;52.67;101390.95;24603;1323;3053773;-62
2022/12/05 09:47:32;;;;;;;10.30;2.70;;;;;;;-3.09;52.61;101390.34;24599;1323;3051226;-65
2022/12/05 09:50:16;;;;;;;7.90;2.60;;;;;;;-3.04;52.54;101389.30;24626;1316;3028420;-63
2022/12/05 09:52:48;;;;;;;8.20;3.10;;;;;;;-2.90;52.54;101382.09;24603;1330;3053787;-63
2022/12/05 09:55:18;;;;;;;6.00;2.90;;;;;;;-2.82;52.16;101377.32;24632;1324;3025775;-67
2022/12/05 09:57:51;;;;;;;4.90;2.70;;;;;;;-2.71;51.89;101376.73;24711;1317;3026040;-61
2022/12/05 10:00:20;;;;;;;7.80;3.10;;;;;;;-2.56;51.31;101374.84;24603;1323;3049136;-65
2022/12/05 10:02:53;;;;;;;10.80;3.10;;;;;;;-2.65;51.43;101379.95;24651;1316;3028570;-65
2022/12/05 10:05:40;;;;;;;9.60;3.40;;;;;;;-2.76;51.77;101376.44;24579;1317;3052874;-67
2022/12/05 10:08:20;;;;;;;8.10;2.90;;;;;;;-2.81;52.20;101371.16;24614;1324;3049952;-65
2022/12/05 10:10:55;;;;;;;7.60;2.30;;;;;;;-2.54;51.85;101368.54;24674;1323;3069077;-65
2022/12/05 10:13:42;;;;;;;4.90;2.50;;;;;;;-2.54;51.98;101361.69;24592;1324;3050935;-67
2022/12/05 10:16:14;;;;;;;6.20;2.60;;;;;;;-2.29;51.49;101356.59;24549;1317;3056404;-64
2022/12/05 10:18:58;;;;;;;6.90;3.10;;;;;;;-2.14;51.04;101357.77;24572;1324;3025864;-63
2022/12/05 10:21:46;;;;;;;7.90;3.10;;;;;;;-2.25;51.33;101355.98;24668;1324;3052320;-63
2022/12/05 10:24:27;;;;;;;5.80;3.10;;;;;;;-2.23;51.30;101350.53;24563;1316;3052082;-63
2022/12/05 10:27:01;;;;;;;6.20;2.60;;;;;;;-2.06;51.22;101346.09;24554;1323;3052290;-63
2022/12/05 10:29:44;;;;;;;7.40;2.60;;;;;;;-1.95;50.90;101344.45;24633;1323;3049834;-65
2022/12/05 10:32:17;;;;;;;5.40;2.70;;;;;;;-2.00;50.74;101344.34;24618;1316;3068719;-63
2022/12/05 10:34:49;;;;;;;6.80;2.80;;;;;;;-1.83;50.46;101353.45;24732;1324;3050754;-63
2022/12/05 10:37:53;;;;;;;7.40;2.60;;;;;;;-1.83;50.49;101345.52;24603;1325;3026095;-64
2022/12/05 10:40:25;;;;;;;4.50;2.00;;;;;;;-1.84;50.62;101338.98;24602;1317;3052456;-62
2022/12/05 10:42:55;;;;;;;6.60;2.70;;;;;;;-1.84;50.66;101335.20;24545;1324;3028453;-63
2022/12/05 10:48:21;;;;;;;7.20;2.60;;;;;;;-1.64;50.21;101336.80;24586;1324;3053111;-64
2022/12/05 10:50:55;;;;;;;5.50;2.40;;;;;;;-1.61;50.30;101339.60;24617;1324;3028014;-63
2022/12/05 10:53:28;;;;;;;;;;;;;;;-1.58;49.95;101332.29;24578;1316;3068723;-66
2022/12/05 10:55:57;;;;;;;4.50;2.10;;;;;;;-1.55;49.84;101336.29;24587;1322;3026985;-67
2022/12/05 10:58:27;;;;;;;5.90;2.60;;;;;;;-1.48;49.86;101335.20;24654;1316;3026241;-65
2022/12/05 11:00:58;;;;;;;5.10;2.00;;;;;;;-1.64;50.06;101339.90;24767;1323;3068150;-62
2022/12/05 11:03:32;;;;;;;6.40;2.60;;;;;;;-1.50;49.78;101333.30;24629;1316;3026571;-63
2022/12/05 11:06:13;;;;;;;4.50;2.40;;;;;;;-1.59;49.95;101326.77;24657;1324;3056681;-63
2022/12/05 11:08:42;;;;;;;11.60;3.20;;;;;;;-1.45;49.78;101326.85;24656;1324;3051620;-63
2022/12/05 11:11:24;;;;;;;10.10;3.20;;;;;;;-1.50;49.53;101326.23;24650;1317;3026415;-63
2022/12/05 11:14:01;;;;;;;6.40;2.70;;;;;;;-1.24;49.65;101324.45;24630;1324;3057261;-63
2022/12/05 11:16:38;;;;;;;10.30;2.60;;;;;;;-1.34;49.16;101323.44;24573;1316;3052553;-64
2022/12/05 11:19:24;;;;;;;10.20;3.40;;;;;;;-1.29;49.08;101322.30;24691;1326;3053084;-65
2022/12/05 11:21:54;;;;;;;10.00;3.20;;;;;;;-1.32;49.12;101321.41;24672;1323;3052221;-63
2022/12/05 11:24:37;;;;;;;7.10;3.10;;;;;;;-1.29;49.00;101318.20;24676;1324;3025832;-63
2022/12/05 11:27:15;;;;;;;10.50;3.00;;;;;;;-1.17;48.91;101312.90;24578;1313;3052204;-64
2022/12/05 11:30:02;;;;;;;6.40;2.80;;;;;;;-1.27;49.07;101312.38;24568;1322;3050609;-63
2022/12/05 11:33:17;;;;;;;7.80;3.10;;;;;;;-1.19;49.06;101307.71;24629;1316;3051788;-63
2022/12/05 11:35:49;;;;;;;9.40;2.80;;;;;;;-1.19;48.73;101301.16;24693;1324;3049279;-65
2022/12/05 11:38:21;;;;;;;6.30;3.10;;;;;;;-1.28;49.24;101299.30;24730;1324;3026432;-65
2022/12/05 11:41:05;;;;;;;6.40;3.20;;;;;;;-1.10;48.89;101292.21;24642;1324;3026239;-63
2022/12/05 11:43:58;;;;;;;7.60;2.50;;;;;;;-1.19;48.91;101292.58;24619;1324;3056261;-63